createdAt,value
2019-01-28T00:01:09.037Z,98252.95
2019-01-28T00:03:36.825Z,98255.96
2019-01-28T00:06:04.757Z,98258.59
2019-01-28T00:08:32.527Z,98258.13
2019-01-28T00:10:59.794Z,98265.72
2019-01-28T00:13:27.538Z,98263.73
2019-01-28T00:15:55.378Z,98261.95
2019-01-28T00:18:23.083Z,98266.53
2019-01-28T00:20:50.488Z,98256.46
2019-01-28T00:23:17.943Z,98259.41
2019-01-28T00:25:45.342Z,98261.51
2019-01-28T00:28:13.554Z,98262.83
2019-01-28T00:30:41.073Z,98258.38
2019-01-28T00:33:09.070Z,98265.17
2019-01-28T00:35:36.435Z,98266.62
2019-01-28T00:38:04.054Z,98273.27
2019-01-28T00:40:31.491Z,98280.12
2019-01-28T00:42:59.646Z,98276.70
2019-01-28T00:45:27.054Z,98270.67
2019-01-28T00:47:54.410Z,98276.42
2019-01-28T00:50:22.092Z,98275.61
2019-01-28T00:52:49.613Z,98274.47
2019-01-28T00:55:17.218Z,98275.64
2019-01-28T00:57:44.939Z,98272.73
2019-01-28T01:00:17.371Z,98274.69
2019-01-28T01:02:44.857Z,98273.09
2019-01-28T01:05:12.689Z,98274.02
2019-01-28T01:07:40.473Z,98281.08
2019-01-28T01:10:09.098Z,98278.27
2019-01-28T01:12:36.299Z,98288.36
2019-01-28T01:15:07.198Z,98282.96
2019-01-28T01:17:35.231Z,98287.00
2019-01-28T01:20:04.203Z,98290.05
2019-01-28T01:22:31.430Z,98292.75
2019-01-28T01:24:58.914Z,98285.23
2019-01-28T01:27:26.313Z,98288.21
2019-01-28T01:29:54.045Z,98287.11
2019-01-28T01:32:21.993Z,98291.13
2019-01-28T01:34:49.425Z,98284.38
2019-01-28T01:37:17.190Z,98292.89
2019-01-28T01:39:47.510Z,98288.88
2019-01-28T01:42:15.101Z,98287.15
2019-01-28T01:44:42.480Z,98286.97
2019-01-28T01:47:09.630Z,98285.41
2019-01-28T01:49:37.263Z,98285.05
2019-01-28T01:52:04.490Z,98290.12
2019-01-28T01:54:31.950Z,98286.40
2019-01-28T01:56:59.449Z,98291.55
2019-01-28T01:59:26.595Z,98288.60
2019-01-28T02:01:54.435Z,98291.12
2019-01-28T02:04:21.582Z,98288.11
2019-01-28T02:06:49.207Z,98290.88
2019-01-28T02:09:16.443Z,98289.77
2019-01-28T02:11:43.895Z,98289.66
2019-01-28T02:14:11.460Z,98284.55
2019-01-28T02:16:39.777Z,98284.51
2019-01-28T02:19:07.438Z,98286.71
2019-01-28T02:21:37.726Z,98285.58
2019-01-28T02:24:05.301Z,98287.14
2019-01-28T02:26:32.596Z,98285.08
2019-01-28T02:29:00.727Z,98281.84
2019-01-28T02:31:28.084Z,98281.91
2019-01-28T02:33:55.839Z,98278.61
2019-01-28T02:36:23.262Z,98276.02
2019-01-28T02:38:50.637Z,98275.61
2019-01-28T02:41:18.350Z,98270.19
2019-01-28T02:43:46.001Z,98272.59
2019-01-28T02:46:13.469Z,98273.13
2019-01-28T02:48:41.395Z,98269.91
2019-01-28T02:51:09.205Z,98274.36
2019-01-28T02:53:36.904Z,98269.21
2019-01-28T02:56:04.457Z,98262.38
2019-01-28T02:58:31.962Z,98263.72
2019-01-28T03:00:59.633Z,98259.14
2019-01-28T03:03:27.262Z,98257.63
2019-01-28T03:05:54.667Z,98254.09
2019-01-28T03:08:22.385Z,98248.06
2019-01-28T03:10:50.118Z,98244.30
2019-01-28T03:13:17.431Z,98238.11
2019-01-28T03:15:45.168Z,98243.89
2019-01-28T03:18:13.104Z,98246.87
2019-01-28T03:20:41.369Z,98245.08
2019-01-28T03:23:10.271Z,98242.41
2019-01-28T03:25:38.166Z,98243.98
2019-01-28T03:28:05.554Z,98240.43
2019-01-28T03:30:32.939Z,98233.41
2019-01-28T03:33:00.616Z,98232.66
2019-01-28T03:35:28.310Z,98231.20
2019-01-28T03:37:55.877Z,98230.17
2019-01-28T03:40:23.121Z,98237.52
2019-01-28T03:42:51.389Z,98228.51
2019-01-28T03:45:20.763Z,98228.79
2019-01-28T03:47:48.542Z,98224.30
2019-01-28T03:50:17.608Z,98232.05
2019-01-28T03:52:46.289Z,98226.09
2019-01-28T03:55:14.171Z,98223.14
2019-01-28T03:57:42.505Z,98221.36
2019-01-28T04:00:14.756Z,98221.52
2019-01-28T04:02:42.524Z,98219.84
2019-01-28T04:05:10.321Z,98217.18
2019-01-28T04:07:37.795Z,98218.81
2019-01-28T04:10:08.673Z,98211.22
2019-01-28T04:12:36.134Z,98213.80
2019-01-28T04:15:05.508Z,98219.28
2019-01-28T04:17:32.607Z,98213.62
2019-01-28T04:20:00.512Z,98213.25
2019-01-28T04:22:28.000Z,98208.02
2019-01-28T04:24:55.293Z,98211.81
2019-01-28T04:27:22.925Z,98209.20
2019-01-28T04:29:50.482Z,98209.45
2019-01-28T04:32:18.117Z,98204.78
2019-01-28T04:34:45.674Z,98204.80
2019-01-28T04:37:13.197Z,98203.40
2019-01-28T04:39:40.915Z,98205.41
2019-01-28T04:42:08.779Z,98198.75
2019-01-28T04:44:35.947Z,98193.83
2019-01-28T04:47:03.402Z,98191.63
2019-01-28T04:49:31.340Z,98190.59
2019-01-28T04:52:00.250Z,98185.27
2019-01-28T04:54:28.622Z,98171.45
2019-01-28T04:56:55.893Z,98170.70
2019-01-28T04:59:23.279Z,98169.80
2019-01-28T05:01:51.311Z,98174.56
2019-01-28T05:04:18.946Z,98162.48
2019-01-28T05:06:46.340Z,98163.48
2019-01-28T05:09:14.174Z,98167.45
2019-01-28T05:11:41.756Z,98164.53
2019-01-28T05:14:08.875Z,98165.66
2019-01-28T05:16:36.504Z,98162.55
2019-01-28T05:19:03.883Z,98152.17
2019-01-28T05:21:31.130Z,98156.28
2019-01-28T05:23:58.729Z,98144.64
2019-01-28T05:26:26.919Z,98139.91
2019-01-28T05:28:54.343Z,98143.48
2019-01-28T05:31:21.693Z,98131.13
2019-01-28T05:33:49.625Z,98144.27
2019-01-28T05:36:17.157Z,98128.06
2019-01-28T05:38:44.388Z,98133.97
2019-01-28T05:41:12.495Z,98134.39
2019-01-28T05:43:40.255Z,98124.13
2019-01-28T05:46:07.894Z,98120.81
2019-01-28T05:48:35.527Z,98123.06
2019-01-28T05:51:03.009Z,98124.41
2019-01-28T05:53:30.610Z,98115.44
2019-01-28T05:55:58.479Z,98109.20
2019-01-28T05:58:26.098Z,98110.75
2019-01-28T06:00:53.450Z,98112.47
2019-01-28T06:03:20.554Z,98102.45
2019-01-28T06:05:47.904Z,98108.76
2019-01-28T06:08:15.624Z,98108.39
2019-01-28T06:10:43.102Z,98105.34
2019-01-28T06:13:10.818Z,98108.92
2019-01-28T06:15:38.175Z,98109.39
2019-01-28T06:18:05.942Z,98109.11
2019-01-28T06:20:33.402Z,98101.61
2019-01-28T06:23:00.779Z,98111.23
2019-01-28T06:25:28.274Z,98107.66
2019-01-28T06:27:55.662Z,98094.81
2019-01-28T06:30:26.557Z,98102.96
2019-01-28T06:32:54.031Z,98108.02
2019-01-28T06:35:21.533Z,98103.16
2019-01-28T06:37:49.268Z,98092.65
2019-01-28T06:40:20.272Z,98102.14
2019-01-28T06:42:48.319Z,98100.45
2019-01-28T06:45:16.680Z,98099.89
2019-01-28T06:47:46.872Z,98106.92
2019-01-28T06:50:16.322Z,98101.53
2019-01-28T06:52:43.702Z,98109.90
2019-01-28T06:55:11.391Z,98100.55
2019-01-28T06:57:39.212Z,98104.22
2019-01-28T07:00:15.456Z,98106.05
2019-01-28T07:02:42.814Z,98096.83
2019-01-28T07:05:10.949Z,98094.94
2019-01-28T07:07:38.177Z,98093.34
2019-01-28T07:10:05.997Z,98100.38
2019-01-28T07:12:33.283Z,98105.17
2019-01-28T07:15:00.503Z,98100.09
2019-01-28T07:17:27.775Z,98097.33
2019-01-28T07:19:55.377Z,98095.61
2019-01-28T07:22:23.131Z,98097.86
2019-01-28T07:24:50.859Z,98096.20
2019-01-28T07:27:18.455Z,98104.08
2019-01-28T07:29:46.433Z,98095.30
2019-01-28T07:32:14.135Z,98102.47
2019-01-28T07:34:41.280Z,98100.00
2019-01-28T07:37:09.094Z,98107.05
2019-01-28T07:39:36.203Z,98107.89
2019-01-28T07:42:07.276Z,98101.06
2019-01-28T07:44:34.880Z,98118.72
2019-01-28T07:47:02.703Z,98108.37
2019-01-28T07:49:30.085Z,98118.72
2019-01-28T07:51:57.749Z,98117.37
2019-01-28T07:54:25.080Z,98119.69
2019-01-28T07:56:52.663Z,98121.00
2019-01-28T07:59:19.980Z,98110.91
2019-01-28T08:01:47.700Z,98121.29
2019-01-28T08:04:15.987Z,98113.79
2019-01-28T08:06:43.899Z,98116.02
2019-01-28T08:09:11.669Z,98109.53
2019-01-28T08:11:38.902Z,98112.66
2019-01-28T08:14:06.548Z,98121.72
2019-01-28T08:16:34.675Z,98111.98
2019-01-28T08:19:02.149Z,98128.13
2019-01-28T08:21:29.852Z,98128.13
2019-01-28T08:23:57.350Z,98123.89
2019-01-28T08:26:24.608Z,98119.59
2019-01-28T08:28:51.961Z,98126.08
2019-01-28T08:31:19.583Z,98119.27
2019-01-28T08:33:47.214Z,98118.33
2019-01-28T08:36:15.441Z,98120.53
2019-01-28T08:38:42.930Z,98112.59
2019-01-28T08:41:10.187Z,98129.02
2019-01-28T08:43:38.263Z,98121.30
2019-01-28T08:46:05.988Z,98121.49
2019-01-28T08:48:33.458Z,98121.16
2019-01-28T08:51:00.842Z,98127.50
2019-01-28T08:53:28.460Z,98130.81
2019-01-28T08:55:56.697Z,98122.56
2019-01-28T08:58:24.649Z,98125.23
2019-01-28T09:00:52.645Z,98129.84
2019-01-28T09:03:20.046Z,98127.34
2019-01-28T09:05:47.542Z,98125.23
2019-01-28T09:08:15.290Z,98125.73
2019-01-28T09:10:43.525Z,98136.20
2019-01-28T09:13:10.978Z,98131.13
2019-01-28T09:15:38.805Z,98123.83
2019-01-28T09:18:09.090Z,98134.23
2019-01-28T09:20:36.649Z,98125.76
2019-01-28T09:23:04.112Z,98134.48
2019-01-28T09:25:31.332Z,98120.67
2019-01-28T09:27:59.078Z,98119.66
2019-01-28T09:30:29.478Z,98128.95
2019-01-28T09:32:56.994Z,98132.01
2019-01-28T09:35:25.261Z,98122.78
2019-01-28T09:37:52.614Z,98143.41
2019-01-28T09:40:22.140Z,98130.97
2019-01-28T09:42:50.054Z,98129.80
2019-01-28T09:45:21.354Z,98132.64
2019-01-28T09:47:49.005Z,98144.80
2019-01-28T09:50:17.365Z,98147.41
2019-01-28T09:52:47.077Z,98159.23
2019-01-28T09:55:14.886Z,98160.65
2019-01-28T09:57:42.720Z,98167.48
2019-01-28T10:00:21.049Z,98163.97
2019-01-28T10:02:48.647Z,98168.45
2019-01-28T10:05:17.229Z,98168.58
2019-01-28T10:07:45.278Z,98167.42
2019-01-28T10:10:15.182Z,98171.50
2019-01-28T10:12:43.066Z,98167.54
2019-01-28T10:15:13.712Z,98163.56
2019-01-28T10:17:41.489Z,98171.94
2019-01-28T10:20:18.166Z,98172.61
2019-01-28T10:22:45.529Z,98174.95
2019-01-28T10:25:14.535Z,98188.31
2019-01-28T10:27:42.287Z,98188.23
2019-01-28T10:30:12.549Z,98172.77
2019-01-28T10:32:40.827Z,98192.77
2019-01-28T10:35:10.793Z,98183.64
2019-01-28T10:37:38.484Z,98178.85
2019-01-28T10:40:08.837Z,98184.25
2019-01-28T10:42:36.204Z,98187.37
2019-01-28T10:45:05.529Z,98192.80
2019-01-28T10:47:32.988Z,98190.12
2019-01-28T10:50:00.285Z,98197.08
2019-01-28T10:52:27.939Z,98194.73
2019-01-28T10:54:56.038Z,98193.20
2019-01-28T10:57:23.767Z,98192.75
2019-01-28T10:59:51.402Z,98181.19
2019-01-28T11:02:19.065Z,98177.34
2019-01-28T11:04:47.435Z,98191.73
2019-01-28T11:07:14.871Z,98197.61
2019-01-28T11:09:42.353Z,98191.69
2019-01-28T11:12:09.757Z,98186.47
2019-01-28T11:14:37.373Z,98187.79
2019-01-28T11:17:05.323Z,98193.13
2019-01-28T11:19:33.267Z,98184.12
2019-01-28T11:22:01.155Z,98171.69
2019-01-28T11:24:28.809Z,98189.75
2019-01-28T11:26:56.584Z,98178.79
2019-01-28T11:29:24.513Z,98179.33
2019-01-28T11:31:51.594Z,98191.69
2019-01-28T11:34:19.802Z,98185.75
2019-01-28T11:36:47.726Z,98186.80
2019-01-28T11:39:15.586Z,98192.69
2019-01-28T11:41:42.756Z,98188.91
2019-01-28T11:44:11.085Z,98198.01
2019-01-28T11:46:39.098Z,98201.87
2019-01-28T11:49:07.114Z,98197.63
2019-01-28T11:51:35.533Z,98194.31
2019-01-28T11:54:03.271Z,98187.70
2019-01-28T11:56:30.633Z,98188.97
2019-01-28T11:58:57.781Z,98200.56
2019-01-28T12:01:28.553Z,98202.68
2019-01-28T12:03:56.192Z,98209.25
2019-01-28T12:06:24.251Z,98206.09
2019-01-28T12:08:52.222Z,98212.11
2019-01-28T12:11:19.972Z,98216.87
2019-01-28T12:13:47.584Z,98224.04
2019-01-28T12:16:16.015Z,98227.17
2019-01-28T12:18:43.801Z,98228.91
2019-01-28T12:21:11.206Z,98240.48
2019-01-28T12:23:40.264Z,98233.66
2019-01-28T12:26:08.377Z,98241.59
2019-01-28T12:28:35.874Z,98236.39
2019-01-28T12:31:03.831Z,98239.80
2019-01-28T12:33:32.043Z,98250.58
2019-01-28T12:35:59.575Z,98251.24
2019-01-28T12:38:26.984Z,98259.53
2019-01-28T12:40:54.478Z,98261.34
2019-01-28T12:43:21.983Z,98274.75
2019-01-28T12:45:50.331Z,98272.25
2019-01-28T12:48:18.248Z,98276.05
2019-01-28T12:50:46.377Z,98270.34
2019-01-28T12:53:14.062Z,98271.53
2019-01-28T12:55:41.778Z,98281.25
2019-01-28T12:58:09.578Z,98270.08
2019-01-28T13:00:42.223Z,98271.78
2019-01-28T13:03:11.081Z,98272.02
2019-01-28T13:05:39.341Z,98279.97
2019-01-28T13:08:08.322Z,98292.42
2019-01-28T13:10:35.791Z,98285.20
2019-01-28T13:13:03.913Z,98291.76
2019-01-28T13:15:31.762Z,98292.51
2019-01-28T13:17:59.761Z,98293.58
2019-01-28T13:20:28.522Z,98301.94
2019-01-28T13:22:57.708Z,98302.25
2019-01-28T13:25:26.882Z,98303.41
2019-01-28T13:27:54.595Z,98313.08
2019-01-28T13:30:27.574Z,98313.73
2019-01-28T13:32:56.410Z,98319.61
2019-01-28T13:35:23.992Z,98324.23
2019-01-28T13:37:51.298Z,98315.02
2019-01-28T13:40:18.989Z,98323.67
2019-01-28T13:42:46.901Z,98324.21
2019-01-28T13:45:16.927Z,98337.48
2019-01-28T13:47:45.834Z,98330.39
2019-01-28T13:50:18.158Z,98339.72
2019-01-28T13:52:46.528Z,98345.36
2019-01-28T13:55:15.021Z,98352.25
2019-01-28T13:57:42.481Z,98349.49
2019-01-28T14:00:15.721Z,98357.75
2019-01-28T14:02:43.282Z,98359.30
2019-01-28T14:05:11.055Z,98366.79
2019-01-28T14:07:38.920Z,98371.38
2019-01-28T14:10:08.887Z,98372.57
2019-01-28T14:12:36.420Z,98373.92
2019-01-28T14:15:07.331Z,98380.08
2019-01-28T14:17:34.968Z,98386.49
2019-01-28T14:20:03.171Z,98378.61
2019-01-28T14:22:30.767Z,98385.56
2019-01-28T14:24:58.266Z,98381.48
2019-01-28T14:27:25.747Z,98396.38
2019-01-28T14:29:53.093Z,98394.22
2019-01-28T14:32:20.465Z,98403.98
2019-01-28T14:34:47.923Z,98404.16
2019-01-28T14:37:15.257Z,98407.50
2019-01-28T14:39:42.620Z,98414.15
2019-01-28T14:42:10.010Z,98413.15
2019-01-28T14:44:37.673Z,98429.44
2019-01-28T14:47:05.411Z,98431.46
2019-01-28T14:49:33.036Z,98421.67
2019-01-28T14:52:00.293Z,98427.50
2019-01-28T14:54:27.917Z,98434.29
2019-01-28T14:56:55.385Z,98435.56
2019-01-28T14:59:22.641Z,98442.92
2019-01-28T15:01:50.262Z,98445.94
2019-01-28T15:04:17.748Z,98454.75
2019-01-28T15:06:45.156Z,98467.74
2019-01-28T15:09:12.871Z,98467.03
2019-01-28T15:11:40.547Z,98472.98
2019-01-28T15:14:08.007Z,98472.92
2019-01-28T15:16:36.022Z,98482.18
2019-01-28T15:19:04.364Z,98484.16
2019-01-28T15:21:31.853Z,98488.95
2019-01-28T15:23:59.403Z,98502.56
2019-01-28T15:26:26.992Z,98494.38
2019-01-28T15:28:54.924Z,98503.91
2019-01-28T15:31:22.752Z,98503.27
2019-01-28T15:33:50.270Z,98511.41
2019-01-28T15:36:17.748Z,98510.84
2019-01-28T15:38:45.185Z,98513.81
2019-01-28T15:41:12.450Z,98517.27
2019-01-28T15:43:39.967Z,98519.95
2019-01-28T15:46:07.591Z,98533.77
2019-01-28T15:48:35.021Z,98543.86
2019-01-28T15:51:03.589Z,98550.16
2019-01-28T15:53:31.712Z,98545.72
2019-01-28T15:55:58.865Z,98552.58
2019-01-28T15:58:26.267Z,98551.95
2019-01-28T16:00:53.682Z,98565.83
2019-01-28T16:03:21.943Z,98569.98
2019-01-28T16:05:49.199Z,98571.55
2019-01-28T16:08:16.748Z,98571.42
2019-01-28T16:10:44.714Z,98568.53
2019-01-28T16:13:12.561Z,98581.84
2019-01-28T16:15:43.983Z,98583.31
2019-01-28T16:18:12.217Z,98581.64
2019-01-28T16:20:40.040Z,98591.68
2019-01-28T16:23:08.210Z,98604.67
2019-01-28T16:25:35.755Z,98604.67
2019-01-28T16:28:05.341Z,98613.73
2019-01-28T16:30:33.878Z,98614.48
2019-01-28T16:33:01.499Z,98617.34
2019-01-28T16:35:29.255Z,98630.95
2019-01-28T16:37:56.651Z,98637.56
2019-01-28T16:40:25.641Z,98637.92
2019-01-28T16:42:53.449Z,98638.53
2019-01-28T16:45:21.041Z,98664.61
2019-01-28T16:47:49.111Z,98668.67
2019-01-28T16:50:26.714Z,98672.09
2019-01-28T16:52:50.585Z,98668.74
2019-01-28T16:55:18.790Z,98688.28
2019-01-28T16:57:46.593Z,98687.57
2019-01-28T17:00:24.989Z,98693.66
2019-01-28T17:02:53.052Z,98687.61
2019-01-28T17:05:20.946Z,98693.38
2019-01-28T17:07:48.984Z,98701.91
2019-01-28T17:10:17.341Z,98712.87
2019-01-28T17:12:44.946Z,98720.75
2019-01-28T17:15:14.295Z,98724.09
2019-01-28T17:17:41.934Z,98739.14
2019-01-28T17:20:14.336Z,98735.16
2019-01-28T17:22:41.937Z,98749.18
2019-01-28T17:25:13.196Z,98745.37
2019-01-28T17:27:40.909Z,98755.59
2019-01-28T17:30:18.073Z,98760.11
2019-01-28T17:32:46.323Z,98763.84
2019-01-28T17:35:13.837Z,98771.22
2019-01-28T17:37:41.555Z,98778.62
2019-01-28T17:40:11.023Z,98782.00
2019-01-28T17:42:38.793Z,98785.81
2019-01-28T17:45:10.461Z,98793.34
2019-01-28T17:47:37.807Z,98794.61
2019-01-28T17:50:07.510Z,98798.09
2019-01-28T17:52:36.001Z,98809.63
2019-01-28T17:55:04.303Z,98804.87
2019-01-28T17:57:32.338Z,98828.16
2019-01-28T17:59:59.999Z,98827.63
2019-01-28T18:02:27.765Z,98830.11
2019-01-28T18:04:55.181Z,98834.22
2019-01-28T18:07:22.636Z,98847.70
2019-01-28T18:09:50.029Z,98845.98
2019-01-28T18:12:17.646Z,98848.56
2019-01-28T18:14:46.228Z,98854.75
2019-01-28T18:17:13.504Z,98853.06
2019-01-28T18:19:41.357Z,98863.09
2019-01-28T18:22:09.331Z,98868.14
2019-01-28T18:24:36.555Z,98876.95
2019-01-28T18:27:04.653Z,98879.45
2019-01-28T18:29:32.003Z,98897.25
2019-01-28T18:32:01.427Z,98897.55
2019-01-28T18:34:28.934Z,98901.37
2019-01-28T18:36:57.390Z,98913.31
2019-01-28T18:39:24.975Z,98912.48
2019-01-28T18:41:52.648Z,98920.70
2019-01-28T18:44:19.884Z,98931.59
2019-01-28T18:46:47.551Z,98933.05
2019-01-28T18:49:15.585Z,98938.59
2019-01-28T18:51:43.338Z,98952.80
2019-01-28T18:54:11.179Z,98958.45
2019-01-28T18:56:39.457Z,98972.92
2019-01-28T18:59:06.958Z,98963.14
2019-01-28T19:01:35.075Z,98974.09
2019-01-28T19:04:03.192Z,98974.25
2019-01-28T19:07:02.631Z,98978.28
2019-01-28T19:09:37.571Z,98979.20
2019-01-28T19:12:33.871Z,98988.06
2019-01-28T19:15:20.332Z,98991.96
2019-01-28T19:18:07.833Z,99006.94
2019-01-28T19:20:40.921Z,99010.31
2019-01-28T19:23:09.197Z,99021.23
2019-01-28T19:25:36.903Z,99017.60
2019-01-28T19:28:05.599Z,99032.92
2019-01-28T19:30:33.587Z,99031.80
2019-01-28T19:33:01.729Z,99042.23
2019-01-28T19:35:29.762Z,99045.27
2019-01-28T19:37:57.874Z,99048.95
2019-01-28T19:40:26.566Z,99051.80
2019-01-28T19:42:54.225Z,99063.66
2019-01-28T19:45:22.168Z,99074.62
2019-01-28T19:47:50.135Z,99079.59
2019-01-28T19:50:20.907Z,99084.13
2019-01-28T19:52:48.475Z,99091.77
2019-01-28T19:55:16.323Z,99095.97
2019-01-28T19:57:43.825Z,99098.23
2019-01-28T20:00:21.507Z,99098.61
2019-01-28T20:02:49.610Z,99102.42
2019-01-28T20:05:17.030Z,99106.19
2019-01-28T20:07:44.492Z,99105.84
2019-01-28T20:10:12.609Z,99110.64
2019-01-28T20:12:40.385Z,99113.73
2019-01-28T20:15:14.109Z,99115.08
2019-01-28T20:17:41.742Z,99111.16
2019-01-28T20:20:11.743Z,99114.32
2019-01-28T20:22:39.020Z,99120.31
2019-01-28T20:25:08.221Z,99123.19
2019-01-28T20:27:35.869Z,99130.68
2019-01-28T20:30:09.133Z,99140.66
2019-01-28T20:32:36.849Z,99136.25
2019-01-28T20:35:05.596Z,99149.08
2019-01-28T20:37:33.392Z,99149.53
2019-01-28T20:40:00.548Z,99132.20
2019-01-28T20:42:28.820Z,99159.95
2019-01-28T20:44:56.887Z,99155.17
2019-01-28T20:47:24.652Z,99167.56
2019-01-28T20:49:52.117Z,99168.92
2019-01-28T20:52:19.511Z,99171.45
2019-01-28T20:54:46.883Z,99172.88
2019-01-28T20:57:17.731Z,99177.09
2019-01-28T20:59:45.133Z,99181.22
2019-01-28T21:02:12.554Z,99184.45
2019-01-28T21:04:40.066Z,99200.50
2019-01-28T21:07:07.486Z,99204.32
2019-01-28T21:09:34.875Z,99214.47
2019-01-28T21:12:02.813Z,99214.20
2019-01-28T21:14:30.982Z,99228.50
2019-01-28T21:16:58.794Z,99221.71
2019-01-28T21:19:26.058Z,99228.93
2019-01-28T21:21:53.783Z,99229.39
2019-01-28T21:24:21.699Z,99234.33
2019-01-28T21:26:49.063Z,99233.21
2019-01-28T21:29:17.112Z,99231.09
2019-01-28T21:31:44.721Z,99237.49
2019-01-28T21:34:13.064Z,99250.95
2019-01-28T21:37:03.366Z,99249.95
2019-01-28T21:39:30.937Z,99251.95
2019-01-28T21:41:59.049Z,99255.31
2019-01-28T21:44:26.452Z,99261.70
2019-01-28T21:46:54.272Z,99268.16
2019-01-28T21:49:22.505Z,99279.72
2019-01-28T21:51:50.620Z,99283.02
2019-01-28T21:54:18.696Z,99282.50
2019-01-28T21:56:45.939Z,99282.84
2019-01-28T21:59:13.541Z,99280.84
2019-01-28T22:01:41.491Z,99282.20
2019-01-28T22:04:09.602Z,99289.53
2019-01-28T22:06:37.892Z,99290.34
2019-01-28T22:09:08.287Z,99299.94
2019-01-28T22:11:36.310Z,99302.51
2019-01-28T22:14:04.345Z,99302.86
2019-01-28T22:16:31.614Z,99303.11
2019-01-28T22:18:59.306Z,99314.94
2019-01-28T22:21:26.934Z,99315.54
2019-01-28T22:23:54.763Z,99319.65
2019-01-28T22:26:23.017Z,99316.84
2019-01-28T22:28:50.815Z,99322.02
2019-01-28T22:31:18.670Z,99333.05
2019-01-28T22:33:46.216Z,99336.00
2019-01-28T22:36:13.805Z,99338.28
2019-01-28T22:38:41.570Z,99339.76
2019-01-28T22:41:09.902Z,99346.14
2019-01-28T22:43:37.736Z,99347.69
2019-01-28T22:46:05.588Z,99351.84
2019-01-28T22:48:32.857Z,99344.73
2019-01-28T22:51:00.378Z,99348.66
2019-01-28T22:53:27.864Z,99350.61
2019-01-28T22:55:55.502Z,99343.59
2019-01-28T22:58:22.850Z,99348.88
2019-01-28T23:01:22.202Z,99357.52
2019-01-28T23:03:49.881Z,99354.59
2019-01-28T23:06:17.230Z,99361.45
2019-01-28T23:08:45.429Z,99363.11
2019-01-28T23:11:13.142Z,99361.69
2019-01-28T23:13:40.531Z,99368.59
2019-01-28T23:16:08.268Z,99368.25
2019-01-28T23:18:35.745Z,99367.27
2019-01-28T23:21:03.456Z,99382.84
2019-01-28T23:23:30.930Z,99379.88
2019-01-28T23:25:58.929Z,99378.45
2019-01-28T23:28:26.917Z,99379.98
2019-01-28T23:30:54.946Z,99379.72
2019-01-28T23:33:22.969Z,99381.94
2019-01-28T23:35:50.666Z,99382.73
2019-01-28T23:38:18.078Z,99392.07
2019-01-28T23:40:45.594Z,99395.59
2019-01-28T23:43:12.823Z,99407.59
2019-01-28T23:45:40.398Z,99403.23
2019-01-28T23:48:08.484Z,99409.24
2019-01-28T23:50:35.820Z,99402.41
2019-01-28T23:53:03.877Z,99405.36
2019-01-28T23:55:31.471Z,99410.12
2019-01-28T23:57:59.378Z,99424.48
